Time;durP1;ratioP1;P1;durP2;ratioP2;P2;SDS_P1;SDS_P2;PMS_P1;PMS_P2;Temp;Humidity;BMP_temperature;BMP_pressure;BME280_temperature;BME280_humidity;BME280_pressure;Samples;Min_cycle;Max_cycle;Signal;HPM_P1;HPM_P2
2022/04/06 00:00:08;;;;;;;5.62;4.47;;;;;;;4.48;90.45;96921.19;1823505;78;21477;-61
2022/04/06 00:02:40;;;;;;;4.78;4.28;;;;;;;4.47;90.56;96911.67;1823497;78;21001;-65
2022/04/06 00:05:09;;;;;;;6.20;4.90;;;;;;;4.50;90.55;96912.45;1823230;78;21481;-63
2022/04/06 00:07:41;;;;;;;5.47;4.50;;;;;;;4.51;90.58;96918.79;1823524;78;20989;-64
2022/04/06 00:10:12;;;;;;;4.87;4.30;;;;;;;4.51;90.60;96916.67;1823439;78;20914;-64
2022/04/06 00:12:42;;;;;;;5.60;3.98;;;;;;;4.49;90.60;96916.95;1823215;78;20934;-61
2022/04/06 00:15:11;;;;;;;4.85;3.67;;;;;;;4.48;90.70;96910.58;1823273;78;21445;-59
2022/04/06 00:17:41;;;;;;;5.42;3.92;;;;;;;4.49;90.64;96910.85;1823230;78;20886;-64
2022/04/06 00:20:09;;;;;;;4.70;4.08;;;;;;;4.51;90.58;96906.06;1823228;78;20993;-61
2022/04/06 00:22:38;;;;;;;5.05;3.95;;;;;;;4.52;90.53;96908.42;1823130;78;21032;-61
2022/04/06 00:25:06;;;;;;;4.28;3.80;;;;;;;4.53;90.33;96906.57;1823107;78;21005;-59
2022/04/06 00:27:35;;;;;;;4.75;3.62;;;;;;;4.56;90.28;96912.66;1823256;78;20989;-63
2022/04/06 00:30:04;;;;;;;5.58;4.17;;;;;;;4.59;90.26;96912.11;1823270;78;21198;-59
2022/04/06 00:32:31;;;;;;;4.72;3.92;;;;;;;4.61;90.21;96911.30;1823193;78;20918;-61
2022/04/06 00:37:31;;;;;;;3.85;3.45;;;;;;;4.66;90.10;96907.28;1823377;78;21415;-64
2022/04/06 00:39:58;;;;;;;4.65;3.50;;;;;;;4.68;89.99;96914.42;1823295;78;20973;-60
2022/04/06 00:42:25;;;;;;;5.62;3.62;;;;;;;4.67;89.92;96920.78;1823234;78;21224;-65
2022/04/06 00:44:53;;;;;;;5.20;3.75;;;;;;;4.66;89.98;96915.23;1823206;78;20918;-60
2022/04/06 00:47:20;;;;;;;6.05;3.70;;;;;;;4.69;89.99;96918.11;1823295;78;20926;-61
2022/04/06 00:49:48;;;;;;;3.95;3.47;;;;;;;4.70;89.97;96914.92;1823272;78;20930;-60
2022/04/06 00:52:15;;;;;;;4.53;3.83;;;;;;;4.70;90.04;96912.27;1823273;78;20947;-63
2022/04/06 00:54:42;;;;;;;4.70;3.83;;;;;;;4.71;90.00;96913.87;1823276;78;21266;-58
2022/04/06 00:57:10;;;;;;;3.90;3.50;;;;;;;4.70;90.08;96921.55;1823192;78;20879;-63
2022/04/06 00:59:38;;;;;;;3.90;3.40;;;;;;;4.65;90.16;96915.77;1823128;78;21054;-62
2022/04/06 01:02:05;;;;;;;4.25;3.75;;;;;;;4.63;90.23;96911.80;1823135;78;20965;-60
2022/04/06 01:04:33;;;;;;;5.55;4.03;;;;;;;4.66;90.40;96912.58;1823252;78;20855;-58
2022/04/06 01:07:02;;;;;;;6.33;4.65;;;;;;;4.64;90.39;96911.52;1823246;78;20847;-64
2022/04/06 01:09:29;;;;;;;4.78;4.28;;;;;;;4.63;90.43;96915.78;1823198;78;20954;-62
2022/04/06 01:11:59;;;;;;;5.05;4.12;;;;;;;4.63;90.35;96917.11;1823157;78;21001;-61
2022/04/06 01:14:26;;;;;;;4.25;3.70;;;;;;;4.63;90.38;96918.44;1823237;78;20938;-62
2022/04/06 01:17:00;;;;;;;4.75;3.90;;;;;;;4.64;90.39;96916.05;1823241;78;21540;-59
2022/04/06 01:19:33;;;;;;;4.40;4.00;;;;;;;4.68;90.40;96913.09;1823369;78;21093;-64
2022/04/06 01:22:03;;;;;;;5.05;4.30;;;;;;;4.72;90.36;96910.92;1823195;78;20895;-61
2022/04/06 01:24:30;;;;;;;5.08;4.10;;;;;;;4.75;90.12;96916.21;1816007;78;20891;-61
2022/04/06 01:27:01;;;;;;;5.30;4.60;;;;;;;4.75;90.00;96920.98;1808913;79;20943;-59
2022/04/06 01:29:28;;;;;;;5.87;4.17;;;;;;;4.74;89.95;96916.74;1808849;79;20939;-58
2022/04/06 01:32:14;;;;;;;5.03;4.10;;;;;;;4.77;89.95;96920.70;1808861;79;21006;-58
2022/04/06 01:34:41;;;;;;;5.85;4.40;;;;;;;4.79;89.96;96918.03;1806499;79;20895;-62
2022/04/06 01:37:10;;;;;;;5.42;4.67;;;;;;;4.81;89.93;96925.17;1808924;79;20958;-60
2022/04/06 01:39:38;;;;;;;4.90;4.40;;;;;;;4.85;89.89;96910.83;1809066;79;20931;-65
2022/04/06 01:42:07;;;;;;;5.28;4.33;;;;;;;4.87;89.76;96913.98;1809296;79;21588;-62
2022/04/06 01:44:34;;;;;;;5.55;5.03;;;;;;;4.88;89.66;96915.55;1808887;79;21037;-63
2022/04/06 01:47:03;;;;;;;5.67;4.47;;;;;;;4.89;89.44;96913.17;1808844;79;20848;-59
2022/04/06 01:52:18;;;;;;;5.78;4.75;;;;;;;4.84;89.31;96913.21;1808917;79;20943;-63
2022/04/06 01:55:03;;;;;;;5.45;4.92;;;;;;;4.82;89.33;96914.03;1808894;79;20931;-65
2022/04/06 01:57:31;;;;;;;5.72;4.87;;;;;;;4.77;89.36;96910.09;1808245;79;21172;-63
2022/04/06 01:59:58;;;;;;;6.22;5.62;;;;;;;4.71;89.54;96903.26;1809059;79;21426;-63
2022/04/06 02:02:30;;;;;;;5.92;5.17;;;;;;;4.69;89.63;96905.38;1808816;79;20974;-58
2022/04/06 02:05:00;;;;;;;7.75;5.58;;;;;;;4.68;89.70;96890.55;1809117;79;20947;-59
2022/04/06 02:07:28;;;;;;;5.50;4.92;;;;;;;4.63;89.75;96901.19;1808844;79;20938;-59
2022/04/06 02:09:59;;;;;;;6.85;5.67;;;;;;;4.59;90.00;96892.22;1809037;79;21219;-59
2022/04/06 02:12:26;;;;;;;6.33;5.72;;;;;;;4.57;90.12;96894.36;1808997;79;20958;-59
2022/04/06 02:14:53;;;;;;;6.85;6.00;;;;;;;4.55;90.22;96896.47;1808963;79;20891;-63
2022/04/06 02:17:22;;;;;;;6.33;5.72;;;;;;;4.52;90.37;96887.21;1808971;79;21291;-59
2022/04/06 02:19:49;;;;;;;8.00;6.33;;;;;;;4.46;90.47;96887.53;1808982;79;20978;-61
2022/04/06 02:22:19;;;;;;;6.60;5.60;;;;;;;4.39;90.67;96878.58;1809034;79;20911;-61
2022/04/06 02:24:48;;;;;;;6.65;5.95;;;;;;;4.39;90.86;96880.43;1808946;79;20938;-59
2022/04/06 02:27:15;;;;;;;10.43;6.03;;;;;;;4.34;91.09;96880.47;1809076;79;21017;-59
2022/04/06 02:29:43;;;;;;;10.32;7.60;;;;;;;4.31;91.32;96881.05;1809008;79;20987;-60
2022/04/06 02:32:10;;;;;;;7.72;6.83;;;;;;;4.29;91.55;96887.92;1809064;79;20867;-64
2022/04/06 02:34:39;;;;;;;9.03;7.42;;;;;;;4.28;91.63;96889.53;1808998;79;20971;-59
2022/04/06 02:37:08;;;;;;;6.90;6.00;;;;;;;4.22;91.88;96886.64;1808985;79;20978;-64
2022/04/06 02:39:35;;;;;;;8.28;6.22;;;;;;;4.18;92.24;96880.33;1808991;79;21584;-58
2022/04/06 02:42:02;;;;;;;9.50;7.47;;;;;;;4.14;92.49;96880.86;1809009;79;20876;-61
2022/04/06 02:44:29;;;;;;;8.13;6.60;;;;;;;4.15;92.66;96887.77;1808930;79;20895;-59
2022/04/06 02:46:57;;;;;;;9.28;7.90;;;;;;;4.15;92.87;96879.81;1808953;79;21724;-58
2022/04/06 02:49:24;;;;;;;8.28;7.20;;;;;;;4.15;92.99;96875.84;1808874;79;20959;-64
2022/04/06 02:51:52;;;;;;;8.70;6.83;;;;;;;4.14;93.12;96880.86;1809040;79;20848;-62
2022/04/06 02:54:20;;;;;;;10.85;7.55;;;;;;;4.13;93.31;96887.25;1809003;79;20900;-58
2022/04/06 02:56:48;;;;;;;8.58;7.40;;;;;;;4.11;93.48;96884.09;1808958;79;20955;-63
2022/04/06 02:59:15;;;;;;;9.48;8.45;;;;;;;4.11;93.63;96881.44;1809021;79;21214;-58
2022/04/06 03:01:43;;;;;;;9.70;7.28;;;;;;;4.10;93.69;96877.19;1809161;79;21426;-63
2022/04/06 03:04:10;;;;;;;8.43;7.25;;;;;;;4.09;93.77;96877.48;1808978;79;21458;-58
2022/04/06 03:06:37;;;;;;;11.12;8.13;;;;;;;4.06;93.91;96888.09;1808975;79;20946;-62
2022/04/06 03:09:05;;;;;;;9.75;7.53;;;;;;;4.07;94.01;96893.63;1809050;79;21025;-64
2022/04/06 03:11:32;;;;;;;10.28;7.70;;;;;;;4.08;94.04;96895.23;1808925;79;21213;-60
2022/04/06 03:13:59;;;;;;;9.58;8.35;;;;;;;4.07;93.86;96900.26;1808948;79;21007;-63
2022/04/06 03:16:26;;;;;;;9.55;7.58;;;;;;;4.08;93.73;96902.38;1808897;79;20990;-60
2022/04/06 03:18:53;;;;;;;7.80;7.00;;;;;;;4.08;93.42;96913.78;1809061;79;20911;-62
2022/04/06 03:21:21;;;;;;;8.00;7.10;;;;;;;4.06;93.33;96898.69;1809046;79;20922;-58
2022/04/06 03:23:49;;;;;;;8.55;7.50;;;;;;;4.05;93.21;96893.67;1808977;79;21108;-62
2022/04/06 03:26:17;;;;;;;7.70;6.85;;;;;;;4.04;93.11;96900.83;1820452;78;20923;-59
2022/04/06 03:28:44;;;;;;;8.48;6.80;;;;;;;4.02;92.95;96887.59;1823334;78;20875;-63
2022/04/06 03:31:12;;;;;;;9.23;7.08;;;;;;;4.01;92.90;96898.72;1823207;78;20899;-63
2022/04/06 03:33:39;;;;;;;7.20;6.50;;;;;;;4.01;92.87;96905.34;1823364;78;20926;-57
2022/04/06 03:36:06;;;;;;;7.83;7.03;;;;;;;4.01;92.73;96902.69;1823327;78;21222;-63
2022/04/06 03:38:34;;;;;;;7.67;6.90;;;;;;;4.01;92.65;96902.69;1823276;78;20892;-61
2022/04/06 03:41:01;;;;;;;7.62;6.83;;;;;;;4.02;92.42;96896.87;1823328;78;20926;-61
2022/04/06 03:43:29;;;;;;;8.85;7.42;;;;;;;4.02;92.40;96892.37;1823179;78;20934;-64
2022/04/06 03:45:56;;;;;;;7.60;6.83;;;;;;;4.04;92.22;96902.16;1823356;78;20946;-59
2022/04/06 03:48:24;;;;;;;7.80;6.97;;;;;;;4.05;91.99;96892.35;1823416;78;21221;-60
2022/04/06 03:50:51;;;;;;;8.33;6.55;;;;;;;4.05;91.81;96901.63;1823274;78;20871;-62
2022/04/06 03:53:20;;;;;;;8.30;6.40;;;;;;;4.07;91.55;96892.31;1823134;78;20879;-61
2022/04/06 03:55:47;;;;;;;7.30;6.20;;;;;;;4.07;91.28;96903.47;1823297;78;20973;-59
2022/04/06 03:58:14;;;;;;;7.67;6.17;;;;;;;4.08;90.86;96905.83;1823365;78;20915;-63
2022/04/06 04:00:42;;;;;;;6.33;5.70;;;;;;;4.09;90.58;96895.50;1823334;78;21112;-65
2022/04/06 04:03:09;;;;;;;6.67;5.70;;;;;;;4.11;90.29;96902.64;1823231;78;20965;-65
2022/04/06 04:05:36;;;;;;;7.20;6.40;;;;;;;4.12;89.84;96898.91;1823290;78;20926;-62
2022/04/06 04:08:04;;;;;;;7.25;6.37;;;;;;;4.16;89.87;96899.16;1823301;78;20930;-62
2022/04/06 04:10:33;;;;;;;6.90;6.20;;;;;;;4.18;89.55;96901.00;1823280;78;20927;-64
2022/04/06 04:13:02;;;;;;;6.05;5.45;;;;;;;4.22;89.37;96898.58;1823163;78;20898;-59
2022/04/06 04:15:31;;;;;;;6.75;5.60;;;;;;;4.24;88.99;96897.23;1823259;78;20961;-59
2022/04/06 04:17:59;;;;;;;6.65;5.95;;;;;;;4.27;88.65;96894.57;1823290;78;20974;-64
2022/04/06 04:20:26;;;;;;;7.78;5.30;;;;;;;4.32;88.36;96884.73;1823348;78;21393;-60
2022/04/06 04:22:54;;;;;;;6.67;5.15;;;;;;;4.36;87.81;96880.45;1823319;78;20996;-60
2022/04/06 04:25:22;;;;;;;6.25;5.65;;;;;;;4.40;87.58;96891.31;1823072;78;21221;-59
2022/04/06 04:27:50;;;;;;;6.08;5.20;;;;;;;4.43;87.11;96886.78;1823639;78;20891;-62
2022/04/06 04:30:17;;;;;;;8.35;5.33;;;;;;;4.48;86.86;96892.02;1823519;78;21437;-60
2022/04/06 04:32:44;;;;;;;6.50;5.62;;;;;;;4.54;86.74;96886.95;1823215;78;20938;-60
2022/04/06 04:35:12;;;;;;;7.95;5.53;;;;;;;4.59;86.41;96889.56;1823362;78;20891;-62
2022/04/06 04:37:39;;;;;;;6.17;5.40;;;;;;;4.64;86.25;96894.83;1823292;78;21153;-60
2022/04/06 04:40:09;;;;;;;7.10;5.60;;;;;;;4.67;85.71;96893.73;1823197;78;20969;-59
2022/04/06 04:42:38;;;;;;;6.37;5.40;;;;;;;4.72;85.74;96903.50;1823098;78;21018;-61
2022/04/06 04:45:11;;;;;;;5.75;5.10;;;;;;;4.76;85.54;96899.20;1824102;77;21349;-63
2022/04/06 04:47:42;;;;;;;6.03;5.42;;;;;;;4.79;85.15;96896.01;1825698;77;20972;-64
2022/04/06 04:50:10;;;;;;;8.00;5.92;;;;;;;4.84;85.16;96895.97;1848961;77;21758;-59
2022/04/06 04:52:37;;;;;;;6.37;5.53;;;;;;;4.90;85.01;96890.09;1863932;77;20899;-63
2022/04/06 04:55:05;;;;;;;6.70;5.58;;;;;;;4.93;84.81;96889.50;1849235;77;20920;-58
2022/04/06 04:57:34;;;;;;;7.03;5.20;;;;;;;4.96;84.48;96893.73;1824789;77;20911;-64
2022/04/06 05:00:01;;;;;;;6.20;5.20;;;;;;;5.00;84.47;96892.62;1823940;78;20864;-60
2022/04/06 05:02:28;;;;;;;7.28;5.92;;;;;;;5.05;84.33;96889.92;1823899;78;21234;-63
2022/04/06 05:04:56;;;;;;;6.80;5.60;;;;;;;5.08;84.41;96899.45;1824163;78;20872;-65
2022/04/06 05:07:23;;;;;;;7.15;5.85;;;;;;;5.11;84.15;96912.14;1827202;77;20828;-62
2022/04/06 05:09:51;;;;;;;7.10;6.35;;;;;;;5.15;84.00;96911.05;1841656;77;20920;-65
2022/04/06 05:12:19;;;;;;;8.78;5.67;;;;;;;5.16;83.97;96916.08;1829476;77;20935;-64
2022/04/06 05:14:46;;;;;;;7.28;5.37;;;;;;;5.16;83.80;96930.67;1864077;77;21236;-61
2022/04/06 05:17:13;;;;;;;6.92;5.25;;;;;;;5.20;83.74;96932.25;1864025;77;20891;-61
2022/04/06 05:19:42;;;;;;;6.55;5.45;;;;;;;5.24;83.73;96935.91;1863766;77;20903;-66
2022/04/06 05:22:09;;;;;;;5.67;5.00;;;;;;;5.27;83.63;96937.48;1864186;77;20950;-63
2022/04/06 05:24:37;;;;;;;6.12;5.42;;;;;;;5.34;83.48;96929.97;1863555;77;20962;-59
2022/04/06 05:27:04;;;;;;;7.28;5.30;;;;;;;5.39;83.34;96923.25;1850505;77;21132;-65
2022/04/06 05:29:31;;;;;;;6.58;5.35;;;;;;;5.47;83.18;96928.48;1849051;77;20852;-59
2022/04/06 05:31:59;;;;;;;6.20;5.50;;;;;;;5.54;83.01;96937.70;1849004;77;21324;-63
2022/04/06 05:34:27;;;;;;;6.37;5.45;;;;;;;5.62;82.86;96936.83;1848981;77;20950;-65
2022/04/06 05:36:54;;;;;;;6.00;5.37;;;;;;;5.70;82.69;96939.64;1849193;77;21376;-63
2022/04/06 05:39:23;;;;;;;5.62;5.00;;;;;;;5.78;82.56;96934.23;1849307;77;21236;-59
2022/04/06 05:41:52;;;;;;;5.87;5.28;;;;;;;5.85;82.06;96936.05;1849230;77;20829;-65
2022/04/06 05:44:19;;;;;;;5.42;4.70;;;;;;;5.88;81.81;96926.17;1849263;77;21451;-65
2022/04/06 05:46:48;;;;;;;5.35;4.50;;;;;;;5.91;81.86;96933.59;1849241;77;21446;-60
2022/04/06 05:49:15;;;;;;;5.90;5.30;;;;;;;5.95;81.70;96927.41;1849323;77;21030;-66
2022/04/06 05:51:44;;;;;;;5.50;4.95;;;;;;;6.02;81.56;96933.70;1849202;77;21060;-64
2022/04/06 05:54:11;;;;;;;6.20;5.00;;;;;;;6.10;81.00;96943.14;1849141;77;21272;-65
2022/04/06 05:56:39;;;;;;;4.45;4.05;;;;;;;6.24;81.28;96953.88;1849491;77;21442;-61
2022/04/06 05:59:06;;;;;;;5.12;4.62;;;;;;;6.35;80.28;96947.34;1849148;77;20955;-65
2022/04/06 06:01:33;;;;;;;4.50;4.08;;;;;;;6.44;80.05;96950.92;1849161;77;20844;-59
2022/04/06 06:04:01;;;;;;;4.40;3.92;;;;;;;6.49;79.05;96941.55;1853650;77;22155;-67
2022/04/06 06:06:31;;;;;;;6.37;4.15;;;;;;;6.57;79.30;96954.17;1849178;77;20825;-64
2022/04/06 06:08:59;;;;;;;3.62;3.30;;;;;;;6.65;78.93;96954.86;1849277;77;20864;-61
2022/04/06 06:11:27;;;;;;;6.15;4.47;;;;;;;6.73;78.60;96955.55;1849238;77;20919;-60
2022/04/06 06:13:54;;;;;;;4.40;3.98;;;;;;;6.79;78.52;96953.05;1846789;77;20876;-61
2022/04/06 06:16:24;;;;;;;6.12;4.47;;;;;;;6.85;78.02;96963.84;1767429;80;20901;-67
2022/04/06 06:18:58;;;;;;;5.28;4.30;;;;;;;6.92;78.36;96968.02;1771985;80;20979;-66
2022/04/06 06:21:27;;;;;;;4.85;4.33;;;;;;;6.96;77.61;96965.81;1757988;81;21023;-69
2022/04/06 06:23:55;;;;;;;5.20;4.70;;;;;;;7.01;77.59;96967.07;1792033;80;21010;-63
2022/04/06 06:26:24;;;;;;;5.67;4.40;;;;;;;7.08;77.78;96976.00;1788746;79;20919;-60
2022/04/06 06:28:51;;;;;;;4.20;3.80;;;;;;;7.13;77.63;96971.93;1779226;80;21908;-63
2022/04/06 06:31:20;;;;;;;4.53;4.00;;;;;;;7.20;77.56;96977.67;1757073;80;20967;-62
2022/04/06 06:33:47;;;;;;;4.50;4.10;;;;;;;7.26;77.24;96977.28;1767635;80;21133;-62
2022/04/06 06:36:14;;;;;;;4.75;3.85;;;;;;;7.36;77.36;96978.98;1771507;79;21451;-71
2022/04/06 06:38:41;;;;;;;4.25;3.85;;;;;;;7.47;77.33;96979.03;1729118;81;20876;-64
2022/04/06 06:41:10;;;;;;;3.70;3.40;;;;;;;7.60;76.83;96978.28;1754083;81;21254;-65
2022/04/06 06:43:38;;;;;;;4.05;3.65;;;;;;;7.73;76.30;96984.14;1726503;81;20912;-63
2022/04/06 06:46:05;;;;;;;3.83;3.42;;;;;;;7.84;75.29;96988.22;1754052;81;21487;-67
2022/04/06 06:48:34;;;;;;;3.95;3.52;;;;;;;7.92;74.97;96974.17;1755011;80;20951;-68
2022/04/06 06:51:02;;;;;;;3.20;2.90;;;;;;;8.02;73.82;96989.98;1770246;79;20900;-66
2022/04/06 06:53:31;;;;;;;4.62;3.17;;;;;;;8.12;74.17;96997.78;1754063;81;21261;-67
2022/04/06 06:56:00;;;;;;;4.03;3.27;;;;;;;8.22;73.46;96997.55;1754001;81;20869;-61
2022/04/06 06:58:28;;;;;;;4.55;3.42;;;;;;;8.30;73.77;96988.63;1754040;81;20931;-68
2022/04/06 07:00:55;;;;;;;3.65;3.20;;;;;;;8.35;73.39;96991.99;1754012;81;20986;-62
2022/04/06 07:03:22;;;;;;;3.60;3.12;;;;;;;8.39;73.24;96996.17;1754085;81;20860;-70
2022/04/06 07:05:50;;;;;;;3.77;3.35;;;;;;;8.42;73.17;97002.25;1754144;81;21120;-62
2022/04/06 07:08:17;;;;;;;3.80;3.17;;;;;;;8.43;72.58;97006.52;1754032;81;21432;-70
2022/04/06 07:10:47;;;;;;;4.33;3.00;;;;;;;8.44;72.77;97001.41;1754085;81;21510;-59
2022/04/06 07:13:18;;;;;;;3.37;2.85;;;;;;;8.45;72.75;96997.66;1760849;80;21019;-67
2022/04/06 07:15:46;;;;;;;4.53;3.00;;;;;;;8.49;72.62;97002.62;1764965;80;21274;-62
2022/04/06 07:18:14;;;;;;;3.62;3.08;;;;;;;8.52;73.14;96998.03;1769449;80;21234;-61
2022/04/06 07:20:42;;;;;;;3.58;3.10;;;;;;;8.54;72.71;97009.20;1771008;80;20869;-62
2022/04/06 07:23:09;;;;;;;4.20;3.20;;;;;;;8.58;73.01;97007.50;1754785;79;20924;-65
2022/04/06 07:25:36;;;;;;;4.20;3.30;;;;;;;8.62;73.02;97008.50;1763331;80;20943;-61
2022/04/06 07:28:06;;;;;;;3.75;3.00;;;;;;;8.64;72.60;97022.33;1749002;81;21038;-65
2022/04/06 07:30:34;;;;;;;3.30;3.00;;;;;;;8.66;72.71;97030.82;1754350;80;21694;-65
2022/04/06 07:33:01;;;;;;;3.33;3.00;;;;;;;8.66;72.54;97021.48;1762272;80;20916;-69
2022/04/06 07:35:28;;;;;;;3.33;3.02;;;;;;;8.69;72.21;97034.23;1764624;80;21443;-61
2022/04/06 07:37:57;;;;;;;3.52;2.98;;;;;;;8.70;72.02;97017.11;1757395;80;21605;-61
2022/04/06 07:40:24;;;;;;;3.85;2.98;;;;;;;8.72;72.02;97022.39;1747993;82;21423;-61
2022/04/06 07:42:52;;;;;;;4.08;3.40;;;;;;;8.75;71.59;97048.50;1784538;79;22045;-66
2022/04/06 07:45:21;;;;;;;3.77;3.35;;;;;;;8.78;71.37;97027.09;1769005;80;20967;-60
2022/04/06 07:47:50;;;;;;;4.30;3.90;;;;;;;8.86;71.46;97042.38;1784091;80;21556;-65
2022/04/06 07:50:19;;;;;;;4.10;3.70;;;;;;;8.95;70.94;97039.22;1756453;80;21112;-63
2022/04/06 07:52:47;;;;;;;3.75;3.45;;;;;;;9.03;70.96;97040.39;1756769;81;21071;-59
2022/04/06 07:55:15;;;;;;;3.75;3.45;;;;;;;9.07;70.37;97042.15;1784114;80;21033;-59
